Time;durP1;ratioP1;P1;durP2;ratioP2;P2;SDS_P1;SDS_P2;PMS_P1;PMS_P2;Temp;Humidity;BMP_temperature;BMP_pressure;BME280_temperature;BME280_humidity;BME280_pressure;Samples;Min_cycle;Max_cycle;Signal;HPM_P1;HPM_P2
2023/08/16 00:01:59;;;;;;;12.18;8.90;;;25.40;51.40;;;;;;5001656;28;114867;-79
2023/08/16 00:04:26;;;;;;;8.98;7.88;;;25.50;51.50;;;;;;5005705;28;114712;-79
2023/08/16 00:06:53;;;;;;;10.20;8.38;;;25.50;51.20;;;;;;5005514;28;114138;-79
2023/08/16 00:09:21;;;;;;;9.50;8.00;;;25.60;51.10;;;;;;5006812;28;114257;-79
2023/08/16 00:11:48;;;;;;;10.43;8.30;;;25.60;51.00;;;;;;5005220;28;115493;-79
2023/08/16 00:14:15;;;;;;;8.90;7.30;;;25.70;51.00;;;;;;5005892;28;115754;-80
2023/08/16 00:16:42;;;;;;;11.70;9.30;;;25.70;50.80;;;;;;5006489;28;114256;-79
2023/08/16 00:19:10;;;;;;;10.15;7.95;;;25.70;50.90;;;;;;5005646;28;114242;-79
2023/08/16 00:21:37;;;;;;;10.88;8.50;;;25.80;50.70;;;;;;5004766;28;115148;-79
2023/08/16 00:24:05;;;;;;;10.48;8.32;;;25.80;50.90;;;;;;5006190;28;114562;-79
2023/08/16 00:26:32;;;;;;;10.13;7.72;;;25.80;50.70;;;;;;4988933;28;114647;-79
2023/08/16 00:29:00;;;;;;;10.18;8.30;;;25.80;50.60;;;;;;5005840;28;114121;-79
2023/08/16 00:31:27;;;;;;;10.68;8.02;;;25.80;50.80;;;;;;5004857;28;115366;-79
2023/08/16 00:33:54;;;;;;;10.00;7.63;;;25.80;50.80;;;;;;5005524;28;115164;-79
2023/08/16 00:36:22;;;;;;;11.07;8.27;;;25.70;50.70;;;;;;4971881;28;114610;-79
2023/08/16 00:38:49;;;;;;;9.23;8.23;;;25.70;50.80;;;;;;4988438;28;114220;-79
2023/08/16 00:41:17;;;;;;;8.80;7.75;;;25.70;50.80;;;;;;4986956;28;115452;-79
2023/08/16 00:43:44;;;;;;;8.82;7.93;;;25.60;50.90;;;;;;5004104;28;114572;-80
2023/08/16 00:46:11;;;;;;;8.60;7.70;;;25.60;50.90;;;;;;5005129;28;114269;-79
2023/08/16 00:48:42;;;;;;;10.25;7.88;;;25.50;51.10;;;;;;4972064;28;114118;-79
2023/08/16 00:51:09;;;;;;;9.40;7.40;;;25.50;51.20;;;;;;4987784;28;114806;-79
2023/08/16 00:53:38;;;;;;;8.32;7.53;;;25.50;51.20;;;;;;4987869;28;114642;-78
2023/08/16 00:56:10;;;;;;;9.90;8.02;;;25.60;51.00;;;;;;4989234;28;114402;-79
2023/08/16 00:58:37;;;;;;;7.82;7.03;;;25.60;50.90;;;;;;4988195;28;114680;-79
2023/08/16 01:01:04;;;;;;;8.32;7.45;;;25.70;50.90;;;;;;5004667;28;114863;-79
2023/08/16 01:03:31;;;;;;;9.25;7.80;;;25.70;50.80;;;;;;5004942;28;114950;-79
2023/08/16 01:05:59;;;;;;;10.45;9.35;;;25.80;50.70;;;;;;5005870;28;114088;-79
2023/08/16 01:08:26;;;;;;;10.70;8.77;;;25.80;50.90;;;;;;5004666;28;114183;-79
2023/08/16 01:10:54;;;;;;;15.80;10.65;;;25.80;50.70;;;;;;5003659;28;115385;-79
2023/08/16 01:13:37;;;;;;;9.18;8.10;;;25.70;50.80;;;;;;5004634;28;114671;-79
2023/08/16 01:16:07;;;;;;;15.68;10.65;;;25.70;50.70;;;;;;4972860;28;114308;-79
2023/08/16 01:18:39;;;;;;;13.05;9.63;;;25.70;50.90;;;;;;4973003;28;114381;-79
2023/08/16 01:21:07;;;;;;;10.35;9.25;;;25.70;50.80;;;;;;5003708;28;114952;-79
2023/08/16 01:23:53;;;;;;;8.85;7.78;;;25.70;50.80;;;;;;4970530;28;115224;-79
2023/08/16 01:26:34;;;;;;;10.45;9.35;;;25.80;50.50;;;;;;5003722;28;114245;-79
2023/08/16 01:29:01;;;;;;;9.60;8.27;;;25.70;50.80;;;;;;4987439;28;114336;-79
2023/08/16 01:31:28;;;;;;;12.15;9.70;;;25.60;50.80;;;;;;4986964;28;115297;-79
2023/08/16 01:33:57;;;;;;;11.25;9.02;;;25.60;51.10;;;;;;5004188;28;116651;-79
2023/08/16 01:36:28;;;;;;;12.05;9.70;;;25.50;51.10;;;;;;5003819;28;114371;-79
2023/08/16 01:38:56;;;;;;;10.82;8.60;;;25.40;51.40;;;;;;4954993;28;114584;-79
2023/08/16 01:41:29;;;;;;;12.35;9.68;;;25.30;51.60;;;;;;4986434;28;115321;-79
2023/08/16 01:43:56;;;;;;;10.25;7.93;;;25.30;51.70;;;;;;5003606;28;114710;-79
2023/08/16 01:46:23;;;;;;;9.77;8.20;;;25.00;51.70;;;;;;4970753;28;114280;-79
2023/08/16 01:48:50;;;;;;;8.60;7.80;;;24.80;52.10;;;;;;4987345;28;114333;-79
2023/08/16 01:51:17;;;;;;;9.02;8.13;;;24.60;52.60;;;;;;5002607;28;115012;-79
2023/08/16 01:53:50;;;;;;;9.38;8.30;;;24.40;52.90;;;;;;4986721;28;114561;-79
2023/08/16 01:56:17;;;;;;;9.50;8.27;;;24.30;53.50;;;;;;5005206;28;114132;-79
2023/08/16 01:58:45;;;;;;;9.43;7.60;;;24.20;53.50;;;;;;5003793;28;114342;-79
2023/08/16 02:01:13;;;;;;;9.07;8.18;;;24.20;53.60;;;;;;4986382;28;115393;-79
2023/08/16 02:03:40;;;;;;;8.55;7.57;;;24.20;54.00;;;;;;5004025;28;114601;-79
2023/08/16 02:06:08;;;;;;;9.82;7.82;;;24.30;53.90;;;;;;5003567;28;114110;-79
2023/08/16 02:08:35;;;;;;;8.80;7.90;;;24.50;53.60;;;;;;5003939;28;114763;-79
2023/08/16 02:11:03;;;;;;;10.02;8.00;;;24.60;53.30;;;;;;5003990;28;115003;-79
2023/08/16 02:13:30;;;;;;;9.23;7.90;;;24.70;53.10;;;;;;4970079;28;114963;-79
2023/08/16 02:16:04;;;;;;;9.10;8.18;;;24.80;52.50;;;;;;5003980;28;114434;-79
2023/08/16 02:18:32;;;;;;;9.20;8.30;;;24.80;52.70;;;;;;4987060;28;114332;-79
2023/08/16 02:20:59;;;;;;;9.15;7.90;;;24.80;52.50;;;;;;5003671;28;114846;-78
2023/08/16 02:23:26;;;;;;;8.05;7.25;;;24.90;52.50;;;;;;4985770;28;115264;-78
2023/08/16 02:25:53;;;;;;;8.88;7.80;;;25.00;52.40;;;;;;4986494;28;114394;-78
2023/08/16 02:28:20;;;;;;;9.23;7.97;;;25.10;52.20;;;;;;5006081;28;114038;-78
2023/08/16 02:30:47;;;;;;;9.00;7.35;;;25.20;52.00;;;;;;4986699;28;114260;-79
2023/08/16 02:33:14;;;;;;;8.45;7.65;;;25.20;51.90;;;;;;4986867;28;114494;-80
2023/08/16 02:35:42;;;;;;;8.48;7.68;;;25.30;51.60;;;;;;5003992;28;114498;-80
2023/08/16 02:38:09;;;;;;;8.50;7.60;;;25.30;51.80;;;;;;5003802;28;114497;-79
2023/08/16 02:40:36;;;;;;;9.43;7.38;;;25.30;51.60;;;;;;5003992;28;115504;-78
2023/08/16 02:43:04;;;;;;;8.38;7.18;;;25.30;51.60;;;;;;5002823;28;115219;-79
2023/08/16 02:45:31;;;;;;;8.30;7.43;;;25.30;51.50;;;;;;5003689;28;114162;-78
2023/08/16 02:47:59;;;;;;;8.13;7.30;;;25.30;51.40;;;;;;5003723;28;114193;-79
2023/08/16 02:50:27;;;;;;;8.40;7.60;;;25.30;51.20;;;;;;5004197;28;114975;-79
2023/08/16 02:52:54;;;;;;;8.18;7.38;;;25.20;51.00;;;;;;5002534;28;115175;-79
2023/08/16 02:55:21;;;;;;;8.43;7.55;;;25.20;51.50;;;;;;5003720;28;114183;-79
2023/08/16 02:57:49;;;;;;;9.05;7.40;;;25.20;51.30;;;;;;5003678;28;114293;-79
2023/08/16 03:00:16;;;;;;;9.18;7.55;;;25.20;51.20;;;;;;5002635;28;115199;-79
2023/08/16 03:02:43;;;;;;;8.70;7.53;;;25.20;51.50;;;;;;5002497;28;115188;-79
2023/08/16 03:05:11;;;;;;;8.57;6.80;;;25.20;51.50;;;;;;5002348;28;114282;-79
2023/08/16 03:07:39;;;;;;;10.35;7.07;;;25.20;51.50;;;;;;5004431;27;114276;-78
2023/08/16 03:10:07;;;;;;;8.57;7.68;;;25.10;51.20;;;;;;5001882;28;114926;-78
2023/08/16 03:12:34;;;;;;;8.20;7.25;;;25.00;51.30;;;;;;5002045;28;115150;-78
2023/08/16 03:15:01;;;;;;;9.25;8.35;;;24.90;51.80;;;;;;5002570;28;114246;-79
2023/08/16 03:17:29;;;;;;;8.75;7.72;;;24.90;51.80;;;;;;5002668;28;114125;-79
2023/08/16 03:19:56;;;;;;;7.90;7.10;;;24.80;51.80;;;;;;5002778;28;115394;-79
2023/08/16 03:22:26;;;;;;;8.10;7.30;;;24.80;52.20;;;;;;5002129;28;114977;-80
2023/08/16 03:24:56;;;;;;;7.88;6.95;;;24.90;52.20;;;;;;4970343;28;114243;-80
2023/08/16 03:27:23;;;;;;;9.80;7.15;;;24.90;52.10;;;;;;5003305;28;114538;-78
2023/08/16 03:29:53;;;;;;;8.13;7.05;;;25.00;51.50;;;;;;4984838;28;115051;-78
2023/08/16 03:32:21;;;;;;;8.82;7.25;;;25.00;52.00;;;;;;5001544;28;115176;-79
2023/08/16 03:34:48;;;;;;;8.30;7.22;;;25.00;51.90;;;;;;4969555;28;114253;-80
2023/08/16 03:37:15;;;;;;;8.82;7.18;;;25.00;52.00;;;;;;5001988;28;114195;-80
2023/08/16 03:39:43;;;;;;;9.55;7.93;;;25.00;51.90;;;;;;5001220;28;115311;-79
2023/08/16 03:42:10;;;;;;;8.65;7.20;;;25.00;51.90;;;;;;5001200;28;114574;-79
2023/08/16 03:44:37;;;;;;;8.70;7.80;;;25.00;52.00;;;;;;5002075;28;114466;-79
2023/08/16 03:47:04;;;;;;;7.95;6.75;;;25.00;51.80;;;;;;5002521;28;114483;-79
2023/08/16 03:49:33;;;;;;;9.57;8.50;;;25.10;51.90;;;;;;5001323;28;115498;-79
2023/08/16 03:52:00;;;;;;;10.60;7.93;;;25.10;51.70;;;;;;5001286;28;114578;-79
2023/08/16 03:54:27;;;;;;;9.55;8.55;;;25.10;51.80;;;;;;5001672;28;114066;-80
2023/08/16 03:56:56;;;;;;;10.45;7.78;;;25.10;51.80;;;;;;5003258;28;114376;-80
2023/08/16 03:59:23;;;;;;;8.55;7.45;;;25.10;51.80;;;;;;5002134;28;115867;-79
2023/08/16 04:01:50;;;;;;;14.35;10.15;;;25.20;51.70;;;;;;5002406;28;114507;-79
2023/08/16 04:04:18;;;;;;;9.85;8.77;;;25.20;51.60;;;;;;5002012;28;114169;-79
2023/08/16 04:06:45;;;;;;;10.75;8.85;;;25.20;51.60;;;;;;5003257;28;114257;-80
2023/08/16 04:09:12;;;;;;;8.73;7.82;;;25.10;51.60;;;;;;5002042;28;116077;-79
2023/08/16 04:11:39;;;;;;;8.50;7.43;;;25.20;51.70;;;;;;5002352;28;115846;-79
2023/08/16 04:14:06;;;;;;;11.18;8.55;;;25.20;51.60;;;;;;4984813;28;114279;-78
2023/08/16 04:16:33;;;;;;;11.15;7.75;;;25.30;51.40;;;;;;5001675;28;114220;-78
2023/08/16 04:19:01;;;;;;;9.23;8.27;;;25.30;51.10;;;;;;5000544;28;114911;-78
2023/08/16 04:21:28;;;;;;;9.90;8.32;;;25.30;51.10;;;;;;4984941;28;114797;-80
2023/08/16 04:23:55;;;;;;;13.30;8.85;;;25.30;50.90;;;;;;5002898;28;115623;-80
2023/08/16 04:26:23;;;;;;;8.93;7.53;;;25.40;50.70;;;;;;5001773;28;114327;-80
2023/08/16 04:28:50;;;;;;;9.02;7.57;;;25.40;50.70;;;;;;5000869;28;114828;-78
2023/08/16 04:31:17;;;;;;;10.73;7.93;;;25.40;50.70;;;;;;5000962;28;114764;-79
2023/08/16 04:33:44;;;;;;;11.40;8.93;;;25.40;50.60;;;;;;4984899;28;114282;-80
2023/08/16 04:36:11;;;;;;;8.80;6.63;;;25.30;50.60;;;;;;5001907;28;114216;-79
2023/08/16 04:38:40;;;;;;;8.55;7.00;;;25.30;50.70;;;;;;4968011;28;117809;-79
2023/08/16 04:41:08;;;;;;;8.27;7.47;;;25.20;50.50;;;;;;4967601;28;114671;-79
2023/08/16 04:43:35;;;;;;;10.07;7.78;;;25.20;50.90;;;;;;5002004;28;114362;-80
2023/08/16 04:46:02;;;;;;;7.75;6.97;;;25.20;51.00;;;;;;5001412;28;114645;-79
2023/08/16 04:48:29;;;;;;;9.10;7.45;;;25.30;50.50;;;;;;5000360;28;115558;-80
2023/08/16 04:50:56;;;;;;;8.93;7.78;;;25.20;50.60;;;;;;5005454;28;115149;-80
2023/08/16 04:53:24;;;;;;;8.70;7.38;;;25.20;51.10;;;;;;5004951;28;114418;-80
2023/08/16 04:55:51;;;;;;;9.40;7.78;;;25.30;50.60;;;;;;5005736;28;114227;-80
2023/08/16 04:58:18;;;;;;;11.68;7.25;;;25.30;51.00;;;;;;5004102;28;114885;-79
2023/08/16 05:00:48;;;;;;;9.65;7.30;;;25.30;51.10;;;;;;4988554;28;114718;-79
2023/08/16 05:03:15;;;;;;;8.98;7.13;;;25.30;50.70;;;;;;4988205;28;114118;-80
2023/08/16 05:05:42;;;;;;;9.18;6.88;;;25.40;50.50;;;;;;5004626;28;114162;-79
2023/08/16 05:08:10;;;;;;;7.90;6.85;;;25.50;50.60;;;;;;4986898;28;114911;-79
2023/08/16 05:10:39;;;;;;;9.23;7.53;;;25.60;50.30;;;;;;4987855;28;114755;-79
2023/08/16 05:13:06;;;;;;;7.85;6.28;;;25.80;50.00;;;;;;5005037;28;114291;-79
2023/08/16 05:15:34;;;;;;;8.60;6.90;;;25.90;49.90;;;;;;4987555;28;114579;-79
2023/08/16 05:18:01;;;;;;;8.15;7.20;;;26.00;49.40;;;;;;4987038;28;117675;-80
2023/08/16 05:20:28;;;;;;;10.18;7.50;;;26.20;48.90;;;;;;5003991;28;115054;-79
2023/08/16 05:22:55;;;;;;;8.00;7.22;;;26.20;49.00;;;;;;5005642;28;114450;-80
2023/08/16 05:25:22;;;;;;;10.60;7.63;;;26.30;48.70;;;;;;5005578;28;114064;-80
2023/08/16 05:27:49;;;;;;;10.00;7.80;;;26.50;48.60;;;;;;5004907;28;115243;-80
2023/08/16 05:30:16;;;;;;;10.18;7.00;;;26.60;48.70;;;;;;5005009;28;114661;-79
2023/08/16 05:32:43;;;;;;;11.20;7.65;;;26.60;48.40;;;;;;5005153;28;114093;-80
2023/08/16 05:35:10;;;;;;;8.65;6.95;;;26.70;48.10;;;;;;5005556;28;114425;-80
2023/08/16 05:37:37;;;;;;;8.00;6.97;;;26.80;47.80;;;;;;5005186;28;115010;-78
2023/08/16 05:40:05;;;;;;;9.05;6.25;;;26.80;47.60;;;;;;5004899;28;114255;-79
2023/08/16 05:42:33;;;;;;;7.55;6.55;;;26.90;47.30;;;;;;5004813;28;114585;-78
2023/08/16 05:45:00;;;;;;;8.25;6.45;;;26.90;47.20;;;;;;5004744;28;114325;-79
2023/08/16 05:47:27;;;;;;;10.00;7.32;;;27.00;47.20;;;;;;5005121;28;116620;-79
2023/08/16 05:49:54;;;;;;;11.18;7.93;;;27.00;47.20;;;;;;5005053;28;114842;-79
2023/08/16 05:52:21;;;;;;;7.07;6.38;;;27.20;47.00;;;;;;5005352;28;114228;-80
2023/08/16 05:54:48;;;;;;;8.82;6.85;;;27.30;46.80;;;;;;4971858;28;114266;-78
2023/08/16 05:57:15;;;;;;;7.85;6.40;;;27.40;46.80;;;;;;4970148;28;114892;-80
2023/08/16 05:59:42;;;;;;;8.30;5.97;;;27.60;46.50;;;;;;5004425;28;114642;-79
2023/08/16 06:02:09;;;;;;;6.93;6.07;;;27.70;46.20;;;;;;5005222;28;114167;-80
2023/08/16 06:04:36;;;;;;;7.43;5.88;;;27.80;46.10;;;;;;5005579;28;114346;-79
2023/08/16 06:07:03;;;;;;;6.95;6.28;;;27.90;45.70;;;;;;5003490;28;115628;-79
2023/08/16 06:09:31;;;;;;;8.30;6.60;;;28.10;45.50;;;;;;5004263;28;114582;-79
2023/08/16 06:12:00;;;;;;;7.32;5.75;;;28.20;45.20;;;;;;5003569;28;114036;-80
2023/08/16 06:14:27;;;;;;;9.32;6.38;;;28.30;45.30;;;;;;5004453;28;114135;-80
2023/08/16 06:16:54;;;;;;;7.22;6.53;;;28.40;44.90;;;;;;5003094;28;116118;-79
2023/08/16 06:19:21;;;;;;;7.85;6.78;;;28.50;44.80;;;;;;5002998;28;114834;-79
2023/08/16 06:21:48;;;;;;;10.18;6.60;;;28.70;44.60;;;;;;5004416;28;114512;-80
2023/08/16 06:24:15;;;;;;;9.90;6.75;;;28.80;44.40;;;;;;5003780;28;114476;-80
2023/08/16 06:26:42;;;;;;;8.48;6.15;;;28.90;44.30;;;;;;5004108;28;115312;-80
2023/08/16 06:29:09;;;;;;;9.70;6.35;;;29.00;43.70;;;;;;5002757;28;114923;-80
2023/08/16 06:31:36;;;;;;;6.78;6.07;;;29.10;43.80;;;;;;5003952;28;114151;-80
2023/08/16 06:34:04;;;;;;;7.30;6.60;;;29.20;43.50;;;;;;4987497;28;114489;-79
2023/08/16 06:36:31;;;;;;;6.82;6.18;;;29.30;43.30;;;;;;5003942;28;114850;-78
2023/08/16 06:38:58;;;;;;;6.85;6.03;;;29.40;43.20;;;;;;5004211;28;114603;-79
2023/08/16 06:41:25;;;;;;;7.72;5.60;;;29.50;43.10;;;;;;5004153;28;114128;-80
2023/08/16 06:43:52;;;;;;;6.88;6.18;;;29.60;43.50;;;;;;5004585;28;114378;-80
2023/08/16 06:46:19;;;;;;;6.57;5.80;;;29.70;42.80;;;;;;5002084;28;114872;-80
2023/08/16 06:48:47;;;;;;;7.28;5.55;;;29.80;42.70;;;;;;5003110;28;115013;-80
2023/08/16 06:51:15;;;;;;;6.68;5.80;;;29.80;42.50;;;;;;5004441;28;114263;-80
2023/08/16 06:53:44;;;;;;;9.68;6.10;;;30.00;42.40;;;;;;5004477;28;114403;-80
2023/08/16 06:56:11;;;;;;;7.90;6.07;;;30.10;42.30;;;;;;5002261;28;117128;-80
2023/08/16 06:58:39;;;;;;;7.07;5.80;;;30.20;42.10;;;;;;5003595;28;114391;-79
2023/08/16 07:01:08;;;;;;;10.65;7.97;;;30.20;42.10;;;;;;5003251;28;114556;-80
2023/08/16 07:03:35;;;;;;;9.65;6.18;;;30.20;41.70;;;;;;4970798;28;114226;-80
2023/08/16 07:06:02;;;;;;;7.03;6.20;;;30.20;41.90;;;;;;4985863;28;115005;-80
2023/08/16 07:08:30;;;;;;;7.93;6.15;;;30.30;41.70;;;;;;5003627;28;114553;-80
2023/08/16 07:10:57;;;;;;;9.18;5.65;;;30.30;41.70;;;;;;5003400;28;114353;-80
2023/08/16 07:13:24;;;;;;;8.30;5.53;;;30.30;41.80;;;;;;5002302;28;114191;-80
2023/08/16 07:15:51;;;;;;;6.85;5.25;;;30.40;42.00;;;;;;5001337;28;114827;-79
2023/08/16 07:18:18;;;;;;;6.97;5.60;;;30.40;42.10;;;;;;5002969;28;114610;-79
2023/08/16 07:20:45;;;;;;;8.50;5.70;;;30.40;42.50;;;;;;5002558;28;114406;-79
2023/08/16 07:23:12;;;;;;;6.53;5.53;;;30.50;42.20;;;;;;5003807;28;114440;-79
2023/08/16 07:25:39;;;;;;;9.95;6.53;;;30.60;42.00;;;;;;5001584;28;115053;-79
2023/08/16 07:28:07;;;;;;;8.57;5.88;;;30.60;42.30;;;;;;5003157;28;114848;-79
2023/08/16 07:30:37;;;;;;;7.60;5.55;;;30.70;42.10;;;;;;5003192;28;114458;-79
2023/08/16 07:33:05;;;;;;;7.70;5.45;;;30.80;41.60;;;;;;5002277;28;115252;-79
2023/08/16 07:35:32;;;;;;;7.53;5.03;;;30.80;42.00;;;;;;5002419;28;115058;-79
2023/08/16 07:38:01;;;;;;;8.07;5.60;;;30.80;42.30;;;;;;5001560;28;114823;-79
2023/08/16 07:40:28;;;;;;;6.10;5.45;;;30.90;41.80;;;;;;5002882;28;114212;-79
2023/08/16 07:42:55;;;;;;;7.22;5.80;;;30.90;41.60;;;;;;5001569;28;114629;-81
2023/08/16 07:45:23;;;;;;;6.47;5.13;;;30.90;42.30;;;;;;5002425;28;114950;-80
2023/08/16 07:47:50;;;;;;;7.18;5.45;;;30.90;42.00;;;;;;5001276;28;117398;-80
2023/08/16 07:50:17;;;;;;;6.47;5.10;;;31.00;41.50;;;;;;5003447;28;114052;-80
2023/08/16 07:52:45;;;;;;;6.18;5.07;;;31.00;41.20;;;;;;5002385;28;114324;-80
2023/08/16 07:55:12;;;;;;;8.02;5.25;;;31.00;41.20;;;;;;4985075;28;114911;-81
2023/08/16 07:57:39;;;;;;;5.78;5.07;;;31.10;40.60;;;;;;5002821;28;114599;-80
2023/08/16 08:00:11;;;;;;;7.13;5.47;;;31.10;40.70;;;;;;5001938;28;114405;-79
2023/08/16 08:02:41;;;;;;;7.53;5.72;;;31.10;41.10;;;;;;5002776;28;114419;-80
2023/08/16 08:05:22;;;;;;;10.85;6.10;;;31.20;41.00;;;;;;5001562;28;114984;-79
2023/08/16 08:07:51;;;;;;;7.63;5.30;;;31.30;40.70;;;;;;5001575;28;114609;-79
2023/08/16 08:10:18;;;;;;;8.40;6.03;;;31.30;41.30;;;;;;5002247;28;114143;-79
2023/08/16 08:12:45;;;;;;;7.18;5.63;;;31.30;40.70;;;;;;5002109;28;114234;-79
2023/08/16 08:15:13;;;;;;;8.27;5.45;;;31.40;40.40;;;;;;4984797;28;114899;-80
2023/08/16 08:17:40;;;;;;;8.13;5.40;;;31.40;40.40;;;;;;5002755;28;115248;-79
2023/08/16 08:20:08;;;;;;;7.43;5.80;;;31.50;40.80;;;;;;5001803;28;114611;-79
2023/08/16 08:22:35;;;;;;;9.43;5.93;;;31.60;39.90;;;;;;5002937;28;114407;-79
2023/08/16 08:25:03;;;;;;;5.88;5.28;;;31.60;40.60;;;;;;5003560;28;117361;-80
2023/08/16 08:27:31;;;;;;;7.47;5.20;;;31.70;40.30;;;;;;5004664;28;114637;-80
2023/08/16 08:29:58;;;;;;;8.40;5.40;;;31.80;40.00;;;;;;5006516;28;114452;-80
2023/08/16 08:32:25;;;;;;;6.63;5.40;;;31.80;39.40;;;;;;4988849;28;114296;-80
2023/08/16 08:34:52;;;;;;;6.28;4.90;;;31.90;39.20;;;;;;5004575;28;118575;-80
2023/08/16 08:37:19;;;;;;;6.53;5.10;;;32.00;39.50;;;;;;5004497;28;115085;-81
2023/08/16 08:39:47;;;;;;;8.52;5.32;;;32.10;38.80;;;;;;5005357;28;114248;-80
2023/08/16 08:42:14;;;;;;;5.47;4.85;;;32.10;38.30;;;;;;5006761;28;114337;-80
2023/08/16 08:44:42;;;;;;;6.40;5.07;;;32.10;38.10;;;;;;4972039;28;115569;-79
2023/08/16 08:47:09;;;;;;;7.45;5.22;;;32.00;37.90;;;;;;4988592;28;114615;-80
2023/08/16 08:49:44;;;;;;;7.18;4.45;;;31.80;37.60;;;;;;5006559;28;114648;-80
2023/08/16 08:52:11;;;;;;;8.93;4.95;;;31.60;38.10;;;;;;5005357;28;114575;-80
2023/08/16 08:54:38;;;;;;;7.80;4.75;;;31.50;38.40;;;;;;5004772;28;116182;-81
2023/08/16 08:57:05;;;;;;;8.10;4.88;;;31.40;38.60;;;;;;5006029;28;114610;-81
2023/08/16 08:59:33;;;;;;;6.60;4.95;;;31.30;39.30;;;;;;4988969;28;114446;-80
2023/08/16 09:02:00;;;;;;;7.90;5.10;;;31.30;39.00;;;;;;4972266;28;114445;-80
2023/08/16 09:04:29;;;;;;;5.97;4.82;;;31.10;39.40;;;;;;5004345;28;115426;-80
2023/08/16 09:06:56;;;;;;;8.23;4.80;;;31.10;39.20;;;;;;5005590;28;114792;-80
2023/08/16 09:09:23;;;;;;;5.30;4.68;;;31.10;38.90;;;;;;4988861;28;114337;-80
2023/08/16 09:11:50;;;;;;;6.63;4.63;;;31.10;38.90;;;;;;5004835;28;114288;-80
2023/08/16 09:14:18;;;;;;;5.90;4.63;;;31.10;38.90;;;;;;5004882;28;114959;-80
2023/08/16 09:16:45;;;;;;;7.47;5.10;;;30.90;39.70;;;;;;5003922;28;114381;-81
2023/08/16 09:19:13;;;;;;;8.07;5.30;;;30.80;39.50;;;;;;5006052;28;114157;-81
2023/08/16 09:21:41;;;;;;;13.85;5.10;;;30.90;39.30;;;;;;5004895;28;114155;-80
2023/08/16 09:24:09;;;;;;;6.55;5.20;;;31.00;39.40;;;;;;5003950;28;114937;-80
2023/08/16 09:26:37;;;;;;;6.18;5.18;;;31.10;39.80;;;;;;4987781;28;114706;-80
2023/08/16 09:29:04;;;;;;;10.25;5.00;;;31.10;39.30;;;;;;4988488;28;114582;-80
2023/08/16 09:31:38;;;;;;;7.03;5.38;;;31.10;39.30;;;;;;5005192;28;114509;-80
2023/08/16 09:34:06;;;;;;;7.10;5.50;;;31.10;39.30;;;;;;4987657;28;115242;-79
2023/08/16 09:36:36;;;;;;;8.70;5.30;;;31.10;39.20;;;;;;4986815;28;116890;-81
2023/08/16 09:39:09;;;;;;;6.53;5.28;;;31.10;39.50;;;;;;5005145;28;114308;-79
2023/08/16 09:41:49;;;;;;;6.72;5.07;;;31.00;39.50;;;;;;5004230;28;114406;-80
2023/08/16 09:44:17;;;;;;;9.50;5.45;;;30.90;39.70;;;;;;4989181;28;115105;-80
2023/08/16 09:46:44;;;;;;;5.97;4.90;;;30.90;39.90;;;;;;5004735;28;115232;-80
2023/08/16 09:49:14;;;;;;;7.00;5.05;;;31.00;39.40;;;;;;4988193;28;114175;-78
2023/08/16 09:51:41;;;;;;;6.13;5.43;;;30.90;39.50;;;;;;5005756;28;114079;-80
2023/08/16 09:54:12;;;;;;;6.25;5.10;;;30.80;39.60;;;;;;4987336;28;118103;-79
2023/08/16 09:56:40;;;;;;;9.48;6.07;;;30.60;39.40;;;;;;4987507;28;114512;-79
2023/08/16 09:59:28;;;;;;;8.23;5.43;;;30.60;39.60;;;;;;5004055;28;114265;-80
2023/08/16 10:01:58;;;;;;;6.70;5.30;;;30.70;39.60;;;;;;5005129;28;114141;-81
2023/08/16 10:04:28;;;;;;;6.75;5.30;;;30.70;39.90;;;;;;5002865;28;114949;-80
2023/08/16 10:06:58;;;;;;;6.72;5.20;;;30.80;40.30;;;;;;4987410;28;115288;-80
2023/08/16 10:09:28;;;;;;;6.90;5.32;;;31.00;39.80;;;;;;5004152;28;114426;-79
2023/08/16 10:11:55;;;;;;;9.95;5.50;;;31.10;39.50;;;;;;4954795;28;114062;-79
2023/08/16 10:14:22;;;;;;;7.15;5.80;;;30.90;39.40;;;;;;4970475;28;115112;-79
2023/08/16 10:16:50;;;;;;;6.28;5.65;;;30.90;39.40;;;;;;5003987;28;114558;-80
2023/08/16 10:19:17;;;;;;;7.30;4.90;;;30.90;39.50;;;;;;4987913;28;113992;-80
2023/08/16 10:21:45;;;;;;;6.65;5.00;;;30.80;39.30;;;;;;4970950;28;114305;-79
2023/08/16 10:24:14;;;;;;;6.57;5.50;;;30.80;39.40;;;;;;5002821;28;114889;-79
2023/08/16 10:26:41;;;;;;;6.88;5.53;;;30.90;39.70;;;;;;4986506;28;115271;-80
2023/08/16 10:29:10;;;;;;;7.45;5.15;;;31.10;39.40;;;;;;4986776;28;114214;-80
2023/08/16 10:31:42;;;;;;;6.95;5.30;;;31.30;39.60;;;;;;4987699;28;114354;-79
2023/08/16 10:34:09;;;;;;;8.05;5.53;;;31.40;39.10;;;;;;4986636;28;115134;-79
2023/08/16 10:36:36;;;;;;;6.35;5.47;;;31.40;39.10;;;;;;4954016;28;114632;-80
2023/08/16 10:39:04;;;;;;;8.07;5.57;;;31.60;38.60;;;;;;5004989;28;114208;-78
2023/08/16 10:41:41;;;;;;;6.47;5.43;;;31.70;38.60;;;;;;5004081;28;114277;-81
2023/08/16 10:44:09;;;;;;;6.72;5.60;;;31.80;38.30;;;;;;4986138;28;114963;-79
2023/08/16 10:46:37;;;;;;;7.30;5.50;;;31.80;38.20;;;;;;5002974;28;115187;-79
2023/08/16 10:49:08;;;;;;;6.80;5.55;;;31.80;38.10;;;;;;5004348;28;114039;-78
2023/08/16 10:51:46;;;;;;;10.13;6.30;;;31.80;38.40;;;;;;5006942;28;114423;-78
2023/08/16 10:54:13;;;;;;;7.97;5.50;;;31.80;38.30;;;;;;5003942;28;115724;-80
2023/08/16 10:56:44;;;;;;;9.60;5.28;;;31.80;38.50;;;;;;5002536;28;115260;-79
2023/08/16 10:59:12;;;;;;;5.82;5.22;;;31.70;38.00;;;;;;5003401;28;114135;-78
2023/08/16 11:01:50;;;;;;;6.53;5.85;;;31.60;38.20;;;;;;5003079;28;114424;-79
2023/08/16 11:04:17;;;;;;;7.90;6.10;;;31.60;38.50;;;;;;5002529;28;114949;-78
2023/08/16 11:06:45;;;;;;;6.43;5.38;;;31.60;38.80;;;;;;5001832;28;115191;-79
2023/08/16 11:09:28;;;;;;;;;;;31.60;38.90;;;;;;5004447;28;114220;-79
2023/08/16 11:12:00;;;;;;;8.73;6.18;;;31.40;39.20;;;;;;5004735;28;114227;-78
2023/08/16 11:14:27;;;;;;;7.47;5.85;;;31.40;39.00;;;;;;5001283;28;117008;-79
2023/08/16 11:16:55;;;;;;;6.93;5.78;;;31.40;39.10;;;;;;5003455;28;114950;-79
2023/08/16 11:19:22;;;;;;;6.57;5.53;;;31.40;38.90;;;;;;5002486;28;114301;-79
2023/08/16 11:21:51;;;;;;;7.00;5.85;;;31.30;39.20;;;;;;4986477;28;114414;-79
2023/08/16 11:24:19;;;;;;;8.48;6.07;;;31.30;39.50;;;;;;5002766;28;117057;-80
2023/08/16 11:26:46;;;;;;;8.95;6.13;;;31.10;39.20;;;;;;4968775;28;116158;-80
2023/08/16 11:29:13;;;;;;;8.48;6.10;;;31.10;39.70;;;;;;5003733;28;114483;-80
2023/08/16 11:31:40;;;;;;;6.80;5.90;;;31.10;39.60;;;;;;5003813;28;114241;-80
2023/08/16 11:34:10;;;;;;;7.82;5.53;;;31.10;39.80;;;;;;5002784;28;114948;-79
2023/08/16 11:36:40;;;;;;;6.40;5.70;;;31.20;39.70;;;;;;5003153;28;115098;-79
2023/08/16 11:39:08;;;;;;;7.60;6.07;;;31.20;39.80;;;;;;5002124;28;114174;-79
2023/08/16 11:41:36;;;;;;;8.23;5.95;;;31.20;39.60;;;;;;5001790;28;114153;-79
2023/08/16 11:44:03;;;;;;;9.15;6.00;;;31.20;39.20;;;;;;5001310;28;115392;-79
2023/08/16 11:46:44;;;;;;;10.00;6.50;;;31.20;39.30;;;;;;5002601;28;114683;-79
2023/08/16 11:49:12;;;;;;;7.20;5.88;;;31.30;39.10;;;;;;5002315;28;114112;-79
2023/08/16 11:51:41;;;;;;;7.38;6.10;;;31.10;38.80;;;;;;5002308;28;114254;-79
2023/08/16 11:54:19;;;;;;;8.43;6.38;;;31.10;39.00;;;;;;5001576;28;115062;-78
2023/08/16 11:56:46;;;;;;;9.30;5.97;;;31.30;38.60;;;;;;5003043;28;114694;-79
2023/08/16 11:59:23;;;;;;;6.60;5.78;;;31.10;38.50;;;;;;5004899;28;114265;-79
2023/08/16 12:01:54;;;;;;;7.70;6.07;;;31.20;38.70;;;;;;5006836;28;114512;-79
2023/08/16 12:04:23;;;;;;;6.82;5.95;;;31.20;38.30;;;;;;4989062;28;115066;-79
2023/08/16 12:06:50;;;;;;;7.57;6.03;;;31.30;38.50;;;;;;5006396;28;114588;-80
2023/08/16 12:09:18;;;;;;;6.88;6.18;;;31.30;38.20;;;;;;5005990;28;114240;-79
2023/08/16 12:11:50;;;;;;;7.55;5.70;;;31.30;38.00;;;;;;5007096;28;114364;-79
2023/08/16 12:14:17;;;;;;;9.45;6.50;;;31.30;38.10;;;;;;4988746;28;115918;-78
2023/08/16 12:16:44;;;;;;;7.70;6.15;;;31.40;37.70;;;;;;5004625;28;114882;-79
2023/08/16 12:19:16;;;;;;;8.15;5.43;;;31.40;38.00;;;;;;5005668;28;114453;-79
2023/08/16 12:21:44;;;;;;;8.40;6.23;;;31.50;37.70;;;;;;5005778;28;114333;-81
2023/08/16 12:24:11;;;;;;;7.32;6.10;;;31.50;37.70;;;;;;5006140;28;114821;-77
2023/08/16 12:26:38;;;;;;;8.20;6.30;;;31.50;37.60;;;;;;5006608;28;114547;-78
2023/08/16 12:29:05;;;;;;;7.03;6.07;;;31.60;37.40;;;;;;5005609;28;114458;-80
2023/08/16 12:31:32;;;;;;;7.22;6.03;;;31.50;37.40;;;;;;5006753;28;114235;-79
2023/08/16 12:34:01;;;;;;;7.93;5.88;;;31.50;37.40;;;;;;5006046;28;114917;-80
2023/08/16 12:36:29;;;;;;;6.50;5.88;;;31.50;37.30;;;;;;5005999;28;116089;-80
2023/08/16 12:38:56;;;;;;;7.20;6.50;;;31.40;37.40;;;;;;5006621;28;114372;-81
2023/08/16 12:41:23;;;;;;;7.45;6.68;;;31.40;37.20;;;;;;5005889;28;114429;-80